Time;durP1;ratioP1;P1;durP2;ratioP2;P2;SDS_P1;SDS_P2;PMS_P1;PMS_P2;Temp;Humidity;BMP_temperature;BMP_pressure;BME280_temperature;BME280_humidity;BME280_pressure;Samples;Min_cycle;Max_cycle;Signal;HPM_P1;HPM_P2
2023/05/28 00:00:22;;;;;;;;;;;15.70;47.80;;;11.53;89.30;95549.84;5003933;28;19959;-48
2023/05/28 00:02:48;;;;;;;;;;;15.70;48.00;;;11.50;89.17;95555.72;5003024;28;19932;-49
2023/05/28 00:05:13;;;;;;;;;;;15.60;48.10;;;11.49;89.35;95540.75;4998088;28;19956;-48
2023/05/28 00:07:39;;;;;;;;;;;15.50;48.20;;;11.47;89.15;95536.75;5010011;28;19917;-48
2023/05/28 00:10:06;;;;;;;;;;;15.60;48.30;;;11.42;89.53;95534.91;5013527;28;19909;-48
2023/05/28 00:12:31;;;;;;;;;;;15.50;48.40;;;11.46;88.90;95535.16;4999084;28;19909;-49
2023/05/28 00:14:57;;;;;;;;;;;15.50;48.60;;;11.51;88.27;95535.97;5013129;28;19909;-49
2023/05/28 00:17:23;;;;;;;;;;;15.50;48.70;;;11.54;87.62;95530.06;5009365;28;20253;-51
2023/05/28 00:19:48;;;;;;;;;;;15.50;48.80;;;11.61;87.17;95524.44;5028876;28;19909;-47
2023/05/28 00:22:14;;;;;;;;;;;15.50;48.80;;;11.62;86.65;95525.25;5012758;28;19960;-50
2023/05/28 00:24:40;;;;;;;;;;;15.50;48.90;;;11.54;87.15;95516.75;5005990;28;19913;-52
2023/05/28 00:27:06;;;;;;;;;;;15.50;48.90;;;11.53;87.56;95517.81;5012998;28;19919;-51
2023/05/28 00:29:32;;;;;;;;;;;15.50;49.00;;;11.54;88.49;95513.28;5004267;28;20257;-49
2023/05/28 00:31:58;;;;;;;;;;;15.50;49.10;;;11.52;87.68;95515.41;5010245;28;20435;-48
2023/05/28 00:34:25;;;;;;;;;;;15.50;49.10;;;11.54;86.81;95515.94;5013239;28;20004;-48
2023/05/28 00:36:51;;;;;;;;;;;15.50;49.20;;;11.50;86.00;95513.03;5011402;28;19917;-48
2023/05/28 00:39:18;;;;;;;;;;;15.50;49.20;;;11.43;86.15;95519.69;5013189;28;20405;-46
2023/05/28 00:41:44;;;;;;;;;;;15.50;49.20;;;11.35;86.59;95515.72;5001834;28;19936;-47
2023/05/28 00:44:10;;;;;;;;;;;15.40;49.20;;;11.27;86.29;95521.59;5004446;28;19913;-47
2023/05/28 00:46:39;;;;;;;;;;;15.40;49.30;;;11.19;86.78;95520.31;5012803;28;19913;-48
2023/05/28 00:49:05;;;;;;;;;;;15.30;49.30;;;11.10;86.19;95525.38;4997102;28;19913;-47
2023/05/28 00:51:35;;;;;;;;;;;15.30;49.40;;;11.02;87.42;95525.91;5012421;28;20321;-47
2023/05/28 00:54:03;;;;;;;;;;;15.20;49.40;;;10.96;89.22;95516.31;5001574;28;19916;-47
2023/05/28 00:56:31;;;;;;;;;;;15.20;49.50;;;10.90;91.88;95522.72;5011489;28;19940;-47
2023/05/28 00:58:59;;;;;;;;;;;15.20;49.60;;;10.83;94.06;95519.53;5008782;28;19913;-47
2023/05/28 01:01:26;;;;;;;;;;;15.10;49.70;;;10.76;94.02;95511.81;5011494;28;19932;-47
2023/05/28 01:03:53;;;;;;;;;;;15.00;49.80;;;10.69;94.27;95513.16;4995427;28;19909;-49
2023/05/28 01:06:21;;;;;;;;;;;15.00;49.90;;;10.67;94.21;95517.94;5010303;28;20386;-47
2023/05/28 01:08:48;;;;;;;;;;;14.90;50.00;;;10.67;93.38;95507.28;5011310;28;20000;-47
2023/05/28 01:11:18;;;;;;;;;;;14.90;50.10;;;10.57;94.46;95508.88;5001268;28;19916;-47
2023/05/28 01:13:46;;;;;;;;;;;14.80;50.10;;;10.52;94.86;95508.88;5001147;28;19960;-46
2023/05/28 01:16:12;;;;;;;;;;;14.80;50.30;;;10.53;95.08;95513.16;4998497;28;20035;-48
2023/05/28 01:18:44;;;;;;;;;;;14.70;50.40;;;10.51;94.23;95498.50;5008919;28;20375;-47
2023/05/28 01:21:11;;;;;;;;;;;14.70;50.50;;;10.44;93.92;95508.63;5011772;28;19916;-47
2023/05/28 01:23:47;;;;;;;;;;;14.60;50.60;;;10.34;95.01;95506.72;4999438;28;19909;-47
2023/05/28 01:26:17;;;;;;;;;;;14.50;50.60;;;10.28;95.54;95502.44;5010775;28;20306;-47
2023/05/28 01:28:46;;;;;;;;;;;14.50;50.70;;;10.19;96.85;95496.81;5011410;28;19920;-52
2023/05/28 01:31:14;;;;;;;;;;;14.50;50.90;;;10.16;97.73;95492.81;4992763;28;20477;-47
2023/05/28 01:33:44;;;;;;;;;;;14.40;51.00;;;10.08;97.50;95488.00;5012016;28;19940;-47
2023/05/28 01:36:35;;;;;;;;;;;14.30;51.00;;;10.05;97.67;95485.06;5008644;28;19952;-47
2023/05/28 01:39:02;;;;;;;;;;;14.30;51.20;;;9.98;98.33;95488.00;5000245;28;19916;-46
2023/05/28 01:41:29;;;;;;;;;;;14.30;51.30;;;9.96;99.12;95476.81;5005495;28;19939;-47
2023/05/28 01:43:57;;;;;;;;;;;14.20;51.40;;;9.98;99.02;95482.66;5001812;28;20007;-49
2023/05/28 01:46:24;;;;;;;;;;;14.20;51.50;;;9.95;98.77;95486.66;5011406;28;20383;-49
2023/05/28 01:48:51;;;;;;;;;;;14.20;51.70;;;9.89;99.42;95489.56;4991681;28;19909;-46
2023/05/28 01:51:23;;;;;;;;;;;14.10;51.60;;;9.86;99.65;95482.91;5009790;28;19958;-47
2023/05/28 01:53:50;;;;;;;;;;;14.10;51.80;;;9.93;98.75;95482.66;4994315;28;20433;-47
2023/05/28 01:56:16;;;;;;;;;;;14.10;51.90;;;10.01;98.42;95482.16;5002818;28;19909;-48
2023/05/28 01:58:42;;;;;;;;;;;14.10;52.00;;;10.10;97.40;95477.91;5011217;28;19963;-48
2023/05/28 02:01:31;;;;;;;;;;;14.10;52.20;;;10.15;96.77;95485.91;5005883;28;19970;-46
2023/05/28 02:03:57;;;;;;;;;;;14.10;52.30;;;10.20;94.99;95477.13;4993132;28;20012;-46
2023/05/28 02:06:25;;;;;;;;;;;14.20;52.40;;;10.36;93.87;95486.75;5003938;28;19913;-48
2023/05/28 02:08:52;;;;;;;;;;;14.20;52.50;;;10.47;93.56;95478.78;5011584;28;19909;-47
2023/05/28 02:11:18;;;;;;;;;;;14.30;52.60;;;10.56;93.85;95474.50;5005959;28;20353;-47
2023/05/28 02:13:44;;;;;;;;;;;14.30;52.60;;;10.58;92.18;95477.72;5005292;28;20004;-46
2023/05/28 02:16:10;;;;;;;;;;;14.40;53.20;;;10.64;90.82;95472.09;5011519;28;20004;-47
2023/05/28 02:18:37;;;;;;;;;;;14.50;52.60;;;10.74;91.03;95471.31;5009306;28;19909;-48
2023/05/28 02:21:04;;;;;;;;;;;14.50;52.60;;;10.83;89.71;95475.03;5026110;28;19909;-46
2023/05/28 02:23:30;;;;;;;;;;;14.60;52.60;;;10.92;87.46;95472.63;5004178;28;19920;-47
2023/05/28 02:25:55;;;;;;;;;;;14.60;52.60;;;11.01;85.76;95468.34;5011074;28;19916;-46
2023/05/28 02:28:21;;;;;;;;;;;14.70;52.60;;;11.11;84.59;95470.19;5011027;28;19913;-45
2023/05/28 02:30:47;;;;;;;;;;;14.80;53.30;;;11.19;83.68;95472.31;4992673;28;19913;-45
2023/05/28 02:33:13;;;;;;;;;;;14.90;52.70;;;11.21;85.91;95475.50;5011311;28;19913;-44
2023/05/28 02:35:38;;;;;;;;;;;15.00;52.50;;;11.15;87.28;95481.09;4997359;28;20055;-47
2023/05/28 02:38:05;;;;;;;;;;;15.00;52.40;;;11.05;86.35;95473.94;4999599;28;19991;-49
2023/05/28 02:40:31;;;;;;;;;;;15.00;52.20;;;10.95;85.98;95465.97;5010601;28;19909;-49
2023/05/28 02:42:57;;;;;;;;;;;15.00;52.10;;;10.86;86.39;95476.34;4997851;28;19966;-46
2023/05/28 02:45:22;;;;;;;;;;;14.90;52.60;;;10.75;88.50;95478.25;5011427;28;19960;-46
2023/05/28 02:47:48;;;;;;;;;;;14.90;52.00;;;10.64;89.62;95472.09;4995254;28;20024;-46
2023/05/28 02:50:14;;;;;;;;;;;14.80;52.00;;;10.55;90.11;95476.38;5010866;28;19948;-44
2023/05/28 02:52:39;;;;;;;;;;;14.80;52.00;;;10.49;89.15;95477.44;5010710;28;19909;-49
2023/05/28 02:55:07;;;;;;;;;;;14.70;52.00;;;10.47;89.15;95482.25;4998303;28;20075;-44
2023/05/28 02:57:33;;;;;;;;;;;14.70;52.10;;;10.50;89.27;95479.06;4984467;28;19918;-44
2023/05/28 02:59:59;;;;;;;;;;;14.60;52.20;;;10.52;89.06;95489.44;5006488;28;19962;-47
2023/05/28 03:02:25;;;;;;;;;;;14.70;52.30;;;10.48;89.39;95478.50;5020340;23;20241;-56
2023/05/28 03:04:52;;;;;;;;;;;14.60;52.30;;;10.47;89.22;95476.13;5009713;28;19944;-54
2023/05/28 03:07:19;;;;;;;;;;;14.60;52.40;;;10.42;89.24;95480.38;5011584;28;19963;-53
2023/05/28 03:09:45;;;;;;;;;;;14.60;52.40;;;10.43;88.70;95481.16;5015178;28;19919;-56
2023/05/28 03:12:10;;;;;;;;;;;14.50;52.50;;;10.47;88.95;95481.44;5023674;28;20011;-50
2023/05/28 03:14:36;;;;;;;;;;;14.50;52.60;;;10.47;88.49;95479.59;5015640;28;19909;-50
2023/05/28 03:17:02;;;;;;;;;;;14.60;52.70;;;10.49;88.07;95484.63;5014418;28;19959;-50
2023/05/28 03:19:28;;;;;;;;;;;14.50;52.70;;;10.50;87.97;95488.88;5014892;28;19960;-50
2023/05/28 03:21:53;;;;;;;;;;;14.50;52.70;;;10.51;88.30;95493.16;5004168;28;19909;-50
2023/05/28 03:24:19;;;;;;;;;;;14.60;52.80;;;10.49;88.06;95495.28;5011652;28;19999;-51
2023/05/28 03:26:45;;;;;;;;;;;14.60;52.70;;;10.48;87.92;95499.03;5015238;28;19967;-52
2023/05/28 03:29:10;;;;;;;;;;;14.60;52.70;;;10.46;88.35;95490.47;5014242;28;20279;-55
2023/05/28 03:31:45;;;;;;;;;;;14.50;52.70;;;10.45;88.69;95486.22;5015277;28;19952;-55
2023/05/28 03:34:12;;;;;;;;;;;14.50;52.80;;;10.45;88.93;95481.69;5015084;28;19948;-53
2023/05/28 03:36:40;;;;;;;;;;;14.50;52.80;;;10.39;89.08;95478.22;5011260;28;20477;-53
2023/05/28 03:39:10;;;;;;;;;;;14.50;52.80;;;10.36;89.46;95488.63;5012416;28;19909;-56
2023/05/28 03:41:36;;;;;;;;;;;14.50;52.80;;;10.34;89.53;95488.06;5013967;28;19959;-53
2023/05/28 03:44:04;;;;;;;;;;;14.50;52.80;;;10.30;89.60;95492.34;5014542;28;19913;-55
2023/05/28 03:46:30;;;;;;;;;;;14.50;52.80;;;10.29;89.31;95493.41;5014846;28;20287;-53
2023/05/28 03:48:56;;;;;;;;;;;14.40;52.80;;;10.25;90.68;95493.13;5013602;28;19909;-55
2023/05/28 03:51:23;;;;;;;;;;;14.40;52.80;;;10.18;91.26;95500.53;5014569;28;19951;-49
2023/05/28 03:53:50;;;;;;;;;;;14.40;52.80;;;10.11;91.27;95490.16;5002306;28;19913;-50
2023/05/28 03:56:16;;;;;;;;;;;14.40;52.90;;;10.06;91.90;95494.66;5014876;28;19916;-55
2023/05/28 03:58:42;;;;;;;;;;;14.30;52.80;;;10.03;91.68;95492.50;5014729;28;19909;-49
2023/05/28 04:01:09;;;;;;;;;;;14.30;52.90;;;10.05;90.49;95498.38;5013709;28;20371;-53
2023/05/28 04:03:35;;;;;;;;;;;14.30;52.90;;;10.14;90.01;95492.28;5014065;28;20308;-55
2023/05/28 04:06:02;;;;;;;;;;;14.30;53.00;;;10.20;89.65;95487.78;5012966;28;20019;-56
2023/05/28 04:08:28;;;;;;;;;;;14.40;53.10;;;10.25;89.96;95492.28;5029440;28;19917;-54
2023/05/28 04:10:54;;;;;;;;;;;14.40;53.10;;;10.30;89.48;95492.34;5013296;28;19992;-51
2023/05/28 04:13:20;;;;;;;;;;;14.40;53.10;;;10.33;89.58;95499.78;5014249;28;19917;-49
2023/05/28 04:15:46;;;;;;;;;;;14.50;53.20;;;10.39;88.99;95509.38;5014413;28;20252;-51
2023/05/28 04:18:11;;;;;;;;;;;14.50;53.20;;;10.44;88.19;95509.41;5013026;28;19916;-54
2023/05/28 04:20:37;;;;;;;;;;;14.50;53.20;;;10.52;87.97;95511.53;5013308;28;19909;-52
2023/05/28 04:23:03;;;;;;;;;;;14.60;53.20;;;10.57;87.82;95503.53;5013175;28;20008;-57
2023/05/28 04:25:29;;;;;;;;;;;14.70;53.80;;;10.68;87.41;95500.88;5014233;28;19917;-53
2023/05/28 04:27:56;;;;;;;;;;;14.70;53.10;;;10.83;86.89;95503.53;5014100;28;19920;-51
2023/05/28 04:30:23;;;;;;;;;;;14.90;53.20;;;10.97;85.49;95509.94;5012754;28;19909;-53
2023/05/28 04:32:52;;;;;;;;;;;15.00;53.10;;;11.15;84.57;95505.88;5013586;28;19909;-57
2023/05/28 04:35:19;;;;;;;;;;;15.10;53.00;;;11.31;83.72;95507.47;5012590;28;19909;-57
2023/05/28 04:37:45;;;;;;;;;;;15.20;53.00;;;11.47;82.97;95507.41;5013873;28;19913;-56
2023/05/28 04:40:14;;;;;;;;;;;15.30;52.80;;;11.64;81.83;95515.13;5013926;28;19959;-57
2023/05/28 04:42:40;;;;;;;;;;;15.50;52.70;;;11.78;81.21;95513.44;5009601;28;19909;-55
2023/05/28 04:45:10;;;;;;;;;;;15.70;52.70;;;11.94;82.03;95515.03;5014062;28;19996;-57
2023/05/28 04:47:39;;;;;;;;;;;15.80;52.50;;;12.06;81.15;95513.88;5008907;28;20078;-56
2023/05/28 04:50:06;;;;;;;;;;;16.00;52.30;;;12.09;80.83;95510.66;5013583;28;19908;-53
2023/05/28 04:52:35;;;;;;;;;;;16.10;52.10;;;12.16;80.68;95522.66;5013479;28;20304;-53
2023/05/28 04:55:05;;;;;;;;;;;16.20;51.90;;;12.23;79.48;95517.78;5013007;28;19963;-56
2023/05/28 04:57:32;;;;;;;;;;;16.40;51.80;;;12.38;80.07;95518.75;5013480;28;19916;-50
2023/05/28 04:59:59;;;;;;;;;;;16.50;51.80;;;12.53;78.85;95520.53;5012194;28;20282;-52
2023/05/28 05:02:25;;;;;;;;;;;16.60;51.60;;;12.67;79.37;95524.97;5012881;28;20000;-53
2023/05/28 05:04:50;;;;;;;;;;;16.80;51.60;;;12.80;77.54;95510.19;5012718;28;20327;-50
2023/05/28 05:07:17;;;;;;;;;;;17.00;51.50;;;12.98;76.80;95521.28;5003685;28;20334;-54
2023/05/28 05:09:43;;;;;;;;;;;17.10;51.40;;;13.14;76.14;95520.06;5013428;28;20286;-51
2023/05/28 05:12:09;;;;;;;;;;;17.30;51.30;;;13.27;75.66;95518.63;5011907;28;19909;-50
2023/05/28 05:14:35;;;;;;;;;;;17.50;51.20;;;13.37;74.65;95516.63;5013047;28;19913;-52
2023/05/28 05:17:03;;;;;;;;;;;17.70;51.10;;;13.53;73.80;95521.81;5027393;28;19909;-52
2023/05/28 05:19:28;;;;;;;;;;;17.80;50.90;;;13.69;74.82;95523.25;5013266;28;19916;-52
2023/05/28 05:21:54;;;;;;;;;;;18.00;50.70;;;13.81;72.50;95520.16;5013097;28;19913;-50
2023/05/28 05:24:20;;;;;;;;;;;18.20;50.60;;;13.98;72.71;95525.84;5003290;28;20280;-56
2023/05/28 05:26:46;;;;;;;;;;;18.30;50.40;;;14.15;71.54;95532.59;5013050;28;19913;-53
2023/05/28 05:29:12;;;;;;;;;;;18.50;50.30;;;14.32;71.03;95533.72;5011792;28;20000;-52
2023/05/28 05:31:38;;;;;;;;;;;18.70;50.10;;;14.48;70.05;95523.56;5012546;28;19995;-52
2023/05/28 05:34:04;;;;;;;;;;;18.80;49.90;;;14.59;69.77;95529.59;5012904;28;19916;-57
2023/05/28 05:36:30;;;;;;;;;;;19.10;49.80;;;14.75;69.66;95527.50;5008181;28;20331;-51
2023/05/28 05:38:56;;;;;;;;;;;19.20;50.20;;;14.97;68.71;95527.66;5012779;28;19919;-53
2023/05/28 05:41:22;;;;;;;;;;;19.40;49.50;;;15.15;67.97;95526.03;5011481;28;19913;-53
2023/05/28 05:43:48;;;;;;;;;;;19.60;49.30;;;15.27;66.46;95526.34;5012372;28;19909;-54
2023/05/28 05:46:13;;;;;;;;;;;19.80;49.20;;;15.45;66.10;95526.59;5012323;28;19917;-53
2023/05/28 05:48:40;;;;;;;;;;;20.00;48.90;;;15.54;64.37;95532.06;5011153;28;19916;-54
2023/05/28 05:51:06;;;;;;;;;;;20.20;48.70;;;15.65;64.39;95536.94;5012624;28;19916;-55
2023/05/28 05:53:31;;;;;;;;;;;20.40;48.50;;;15.80;63.61;95535.91;5011186;28;19920;-55
2023/05/28 05:55:57;;;;;;;;;;;20.60;48.30;;;15.90;63.19;95537.56;5012555;28;19909;-53
2023/05/28 05:58:23;;;;;;;;;;;20.70;48.00;;;16.03;62.67;95535.97;5012398;28;20372;-54
2023/05/28 06:00:49;;;;;;;;;;;20.90;47.80;;;16.13;61.67;95543.81;5005026;28;19913;-55
2023/05/28 06:03:15;;;;;;;;;;;21.10;47.50;;;16.19;61.38;95542.63;5012255;28;19971;-53
2023/05/28 06:05:41;;;;;;;;;;;21.20;47.20;;;16.33;61.27;95546.09;5011208;28;19944;-55
2023/05/28 06:08:07;;;;;;;;;;;21.40;47.00;;;16.42;60.96;95546.97;5012274;28;19913;-56
2023/05/28 06:10:33;;;;;;;;;;;21.60;46.80;;;16.49;60.08;95535.81;5027468;28;20356;-55
2023/05/28 06:13:01;;;;;;;;;;;21.70;46.40;;;16.63;59.12;95541.91;5010293;28;19916;-57
2023/05/28 06:15:28;;;;;;;;;;;21.90;46.30;;;16.74;58.49;95536.34;5012246;28;19916;-57
2023/05/28 06:17:55;;;;;;;;;;;22.00;46.10;;;16.83;58.08;95540.69;5011149;28;19916;-57
2023/05/28 06:20:22;;;;;;;;;;;22.20;45.90;;;16.85;58.28;95543.06;5012227;28;20368;-56
2023/05/28 06:22:47;;;;;;;;;;;22.30;45.60;;;17.05;56.58;95542.59;5011107;28;19908;-55
2023/05/28 06:25:14;;;;;;;;;;;22.50;45.40;;;17.01;57.17;95548.88;5003763;28;20295;-55
2023/05/28 06:27:40;;;;;;;;;;;22.60;45.20;;;17.17;56.41;95541.22;5012107;28;19967;-57
2023/05/28 06:30:07;;;;;;;;;;;22.80;45.00;;;17.12;56.61;95544.84;5000460;28;19909;-56
2023/05/28 06:32:33;;;;;;;;;;;23.00;44.70;;;17.29;56.58;95542.25;5010251;28;20273;-57
2023/05/28 06:35:00;;;;;;;;;;;23.10;44.40;;;17.46;56.58;95538.88;5010710;28;19915;-54
2023/05/28 06:37:26;;;;;;;;;;;23.20;44.20;;;17.55;54.80;95537.03;5004238;28;19931;-57
2023/05/28 06:39:52;;;;;;;;;;;23.40;44.00;;;17.90;54.73;95539.09;5012036;28;20367;-57
2023/05/28 06:42:18;;;;;;;;;;;23.50;43.80;;;18.13;54.38;95535.19;5011595;28;19939;-57
2023/05/28 06:44:43;;;;;;;;;;;23.70;43.70;;;18.45;53.35;95533.97;5016104;28;19917;-53
2023/05/28 06:47:10;;;;;;;;;;;23.90;43.50;;;18.61;51.92;95547.00;5014836;28;20231;-56
2023/05/28 06:49:35;;;;;;;;;;;24.10;43.30;;;18.14;51.37;95541.38;5015022;28;20347;-54
2023/05/28 06:52:01;;;;;;;;;;;24.30;42.90;;;18.21;53.30;95547.13;5015696;28;19947;-55
2023/05/28 06:54:27;;;;;;;;;;;24.50;42.60;;;18.43;52.78;95543.53;5014911;28;19909;-57
2023/05/28 06:56:52;;;;;;;;;;;24.60;42.40;;;18.69;52.82;95547.03;5015586;28;19915;-54
2023/05/28 06:59:18;;;;;;;;;;;24.70;42.80;;;18.91;52.78;95535.31;5014769;28;19909;-53
2023/05/28 07:01:44;;;;;;;;;;;24.90;42.00;;;18.99;52.08;95546.41;5015481;28;19916;-55
2023/05/28 07:04:10;;;;;;;;;;;25.00;41.80;;;19.13;51.41;95539.72;5015347;28;19924;-54
2023/05/28 07:06:35;;;;;;;;;;;25.20;41.60;;;19.44;50.82;95541.41;5010307;28;20008;-55
2023/05/28 07:09:01;;;;;;;;;;;25.30;41.40;;;19.49;50.41;95538.56;5015528;28;19909;-57
2023/05/28 07:11:27;;;;;;;;;;;25.60;41.20;;;19.65;49.55;95533.44;5010555;28;19909;-55
2023/05/28 07:13:54;;;;;;;;;;;25.70;40.90;;;19.70;50.10;95537.88;5015625;28;20406;-54
2023/05/28 07:16:21;;;;;;;;;;;25.80;40.70;;;19.91;49.84;95536.03;5015547;28;19928;-54
2023/05/28 07:18:47;;;;;;;;;;;25.90;40.50;;;19.92;49.12;95543.03;5029582;28;19995;-53
2023/05/28 07:21:13;;;;;;;;;;;26.10;41.00;;;20.18;49.15;95536.69;5015312;28;19909;-58
2023/05/28 07:23:39;;;;;;;;;;;26.20;40.10;;;20.32;48.70;95532.63;5014155;28;19924;-54
2023/05/28 07:26:05;;;;;;;;;;;26.30;40.00;;;20.49;48.83;95539.84;5014948;28;19958;-56
2023/05/28 07:28:31;;;;;;;;;;;26.50;39.90;;;20.56;48.18;95540.16;5015269;28;19996;-57
2023/05/28 07:30:57;;;;;;;;;;;26.70;39.70;;;20.75;48.16;95538.91;5001578;28;19909;-55
2023/05/28 07:33:23;;;;;;;;;;;26.80;39.50;;;20.89;46.51;95538.63;5015375;28;19909;-53
2023/05/28 07:35:49;;;;;;;;;;;27.00;39.40;;;20.84;46.91;95538.81;5029394;28;20343;-53
2023/05/28 07:38:15;;;;;;;;;;;27.10;39.10;;;21.06;47.19;95527.66;5014974;28;19913;-54
2023/05/28 07:40:42;;;;;;;;;;;27.20;38.90;;;21.29;46.54;95530.00;5014518;28;19909;-52
2023/05/28 07:43:08;;;;;;;;;;;27.40;38.80;;;21.37;44.40;95538.06;5013927;28;19912;-55
2023/05/28 07:45:34;;;;;;;;;;;27.60;38.50;;;21.45;44.03;95533.66;5015125;28;19913;-56
2023/05/28 07:48:00;;;;;;;;;;;27.70;38.30;;;21.58;44.13;95531.78;5013790;28;20782;-52
2023/05/28 07:50:27;;;;;;;;;;;27.80;38.10;;;21.49;44.25;95534.56;5014643;28;19913;-54
2023/05/28 07:52:53;;;;;;;;;;;27.90;37.80;;;21.42;44.24;95526.22;5013263;28;19909;-53
2023/05/28 07:55:19;;;;;;;;;;;28.10;37.70;;;21.59;43.94;95526.03;5011734;28;20340;-53
2023/05/28 07:57:45;;;;;;;;;;;28.10;37.50;;;21.71;43.98;95531.44;5014836;28;20284;-54
2023/05/28 08:00:16;;;;;;;;;;;28.30;37.40;;;22.15;43.41;95528.19;5007718;28;20403;-53
2023/05/28 08:02:45;;;;;;;;;;;28.40;37.30;;;22.48;43.28;95522.66;5014323;28;19917;-55
2023/05/28 08:05:11;;;;;;;;;;;28.60;37.20;;;22.75;43.98;95523.06;5010240;28;20303;-53
2023/05/28 08:07:37;;;;;;;;;;;28.80;37.10;;;23.12;43.44;95526.47;5014241;28;19919;-55
2023/05/28 08:10:04;;;;;;;;;;;29.00;37.00;;;23.31;42.69;95515.72;5014428;28;20284;-56
2023/05/28 08:12:30;;;;;;;;;;;29.20;36.70;;;22.99;41.03;95525.72;5013543;28;19944;-57
2023/05/28 08:14:56;;;;;;;;;;;29.40;36.50;;;23.03;41.63;95517.66;5014542;28;20375;-57
2023/05/28 08:17:22;;;;;;;;;;;29.50;36.10;;;23.18;42.35;95527.00;5013367;28;19920;-58
2023/05/28 08:19:49;;;;;;;;;;;29.70;36.50;;;23.16;41.20;95515.69;5014139;28;19916;-55
2023/05/28 08:22:15;;;;;;;;;;;29.70;35.60;;;23.33;40.91;95518.88;5014116;28;19909;-53
2023/05/28 08:24:41;;;;;;;;;;;29.90;35.50;;;23.30;41.12;95510.66;5005840;28;20360;-54
2023/05/28 08:27:07;;;;;;;;;;;29.90;35.20;;;23.59;41.24;95517.59;5014281;28;19931;-56
2023/05/28 08:29:33;;;;;;;;;;;30.00;35.10;;;23.74;40.47;95510.63;5007542;28;19917;-57
2023/05/28 08:31:59;;;;;;;;;;;30.20;34.90;;;23.64;40.36;95503.75;5007319;28;19916;-57
2023/05/28 08:34:26;;;;;;;;;;;30.30;34.70;;;23.63;40.12;95510.34;5000804;28;20376;-52
2023/05/28 08:36:52;;;;;;;;;;;30.30;34.50;;;23.64;39.68;95509.19;5002910;28;19910;-52
2023/05/28 08:39:18;;;;;;;;;;;30.40;34.40;;;23.52;40.00;95501.91;5013703;28;20284;-56
2023/05/28 08:41:45;;;;;;;;;;;30.50;34.20;;;23.61;39.84;95503.69;5012944;28;19909;-52
2023/05/28 08:44:10;;;;;;;;;;;30.50;34.00;;;23.78;39.13;95500.63;5028955;28;19909;-55
2023/05/28 08:46:37;;;;;;;;;;;30.60;34.00;;;23.94;39.10;95506.88;5013713;28;19913;-55
2023/05/28 08:49:04;;;;;;;;;;;30.70;33.80;;;23.71;39.79;95506.69;5010743;28;19909;-52
2023/05/28 08:51:35;;;;;;;;;;;30.80;33.70;;;23.40;38.94;95501.19;5013665;28;19915;-55
2023/05/28 08:54:02;;;;;;;;;;;30.90;33.60;;;23.51;39.78;95507.72;5017332;28;20000;-56
2023/05/28 08:56:29;;;;;;;;;;;30.90;33.50;;;23.98;39.73;95499.59;5013518;28;19913;-58
2023/05/28 08:58:55;;;;;;;;;;;31.00;33.40;;;23.92;38.86;95502.94;5013189;28;19909;-56
2023/05/28 09:01:21;;;;;;;;;;;31.10;33.30;;;24.18;38.39;95505.09;5012601;28;20290;-56
2023/05/28 09:03:48;;;;;;;;;;;31.20;33.10;;;24.40;38.06;95496.25;5013726;28;19917;-49
2023/05/28 09:06:14;;;;;;;;;;;31.30;33.00;;;24.52;39.65;95492.66;5010333;28;20295;-54
2023/05/28 09:08:41;;;;;;;;;;;31.40;33.50;;;24.13;38.86;95506.16;5001755;28;19937;-50
2023/05/28 09:11:13;;;;;;;;;;;31.50;32.80;;;24.43;38.27;95483.91;5007967;28;19951;-50
2023/05/28 09:13:47;;;;;;;;;;;31.60;32.70;;;24.84;38.11;95490.59;5013039;28;20004;-49
2023/05/28 09:16:24;;;;;;;;;;;31.70;32.60;;;25.12;37.50;95486.84;5013123;28;19909;-49
2023/05/28 09:19:04;;;;;;;;;;;31.80;32.30;;;25.29;38.14;95491.91;5012171;28;20345;-49
2023/05/28 09:21:31;;;;;;;;;;;32.00;32.30;;;25.20;36.79;95493.28;5013432;28;20351;-50
2023/05/28 09:24:03;;;;;;;;;;;32.10;32.70;;;25.34;36.83;95485.34;5011941;28;19916;-53
2023/05/28 09:26:30;;;;;;;;;;;32.10;31.80;;;25.31;37.51;95481.41;5012965;28;19913;-49
2023/05/28 09:28:57;;;;;;;;;;;32.20;32.30;;;25.05;37.13;95487.50;5011304;28;20395;-50
2023/05/28 09:31:33;;;;;;;;;;;32.20;31.40;;;24.98;38.21;95483.88;5001722;28;19913;-51
2023/05/28 09:34:04;;;;;;;;;;;32.20;31.20;;;25.01;37.80;95488.56;5012833;28;19920;-55
2023/05/28 09:36:31;;;;;;;;;;;32.20;31.20;;;25.45;37.37;95482.84;5026925;28;19909;-51
2023/05/28 09:38:57;;;;;;;;;;;32.20;31.10;;;25.74;37.68;95484.09;5012564;28;20387;-54
2023/05/28 09:41:25;;;;;;;;;;;32.40;31.20;;;25.80;37.14;95479.91;5011614;28;19944;-54
2023/05/28 09:44:00;;;;;;;;;;;32.40;31.10;;;26.15;36.23;95482.44;5012522;28;20411;-52
2023/05/28 09:46:32;;;;;;;;;;;32.60;31.00;;;25.90;36.49;95482.06;5012581;28;19920;-50
2023/05/28 09:49:00;;;;;;;;;;;32.70;31.00;;;25.73;36.32;95485.25;5001699;28;20387;-54
2023/05/28 09:51:31;;;;;;;;;;;32.70;30.70;;;25.87;36.52;95480.06;5012466;28;19951;-58
2023/05/28 09:54:00;;;;;;;;;;;32.80;30.50;;;25.86;35.96;95475.75;5011324;28;19909;-52
2023/05/28 09:56:33;;;;;;;;;;;32.90;30.50;;;26.07;36.63;95476.09;5012634;28;19984;-51
2023/05/28 09:59:02;;;;;;;;;;;32.90;30.30;;;26.47;36.68;95479.38;5011863;28;19920;-50
2023/05/28 10:01:40;;;;;;;;;;;33.00;30.40;;;26.03;36.62;95483.44;5012263;28;20011;-49
2023/05/28 10:04:08;;;;;;;;;;;33.10;30.30;;;26.13;36.57;95478.50;5027127;28;20389;-49
2023/05/28 10:06:38;;;;;;;;;;;33.20;30.20;;;26.11;36.00;95480.81;5010931;28;19913;-50
2023/05/28 10:09:06;;;;;;;;;;;33.30;30.10;;;26.34;36.01;95481.53;5011104;28;19909;-51
2023/05/28 10:11:43;;;;;;;;;;;33.30;30.00;;;26.56;35.69;95479.94;5010111;28;20292;-50
2023/05/28 10:14:10;;;;;;;;;;;33.50;30.00;;;26.60;35.49;95480.75;5012182;28;19909;-49
2023/05/28 10:16:37;;;;;;;;;;;33.50;30.00;;;26.80;35.06;95478.69;5026995;28;20402;-51
2023/05/28 10:19:03;;;;;;;;;;;33.70;30.00;;;26.59;35.78;95467.47;5010569;28;19909;-53
2023/05/28 10:21:29;;;;;;;;;;;33.80;29.80;;;26.67;36.11;95477.31;5027577;28;19931;-53
2023/05/28 10:23:57;;;;;;;;;;;33.80;29.70;;;26.85;36.40;95477.56;5014548;28;19909;-50
2023/05/28 10:26:24;;;;;;;;;;;33.90;29.70;;;27.04;35.53;95477.38;5012289;28;20333;-49
2023/05/28 10:28:56;;;;;;;;;;;34.00;29.70;;;26.97;35.48;95480.81;5012344;28;19916;-54
2023/05/28 10:31:24;;;;;;;;;;;34.10;29.60;;;27.18;35.66;95466.66;5000451;28;19954;-49
2023/05/28 10:33:50;;;;;;;;;;;34.20;29.50;;;26.84;36.03;95473.25;5011900;28;20367;-51
2023/05/28 10:36:17;;;;;;;;;;;34.20;29.40;;;26.10;37.04;95473.78;5011153;28;19931;-50
2023/05/28 10:38:44;;;;;;;;;;;34.30;29.40;;;26.35;36.68;95471.41;5012061;28;19910;-50
2023/05/28 10:41:10;;;;;;;;;;;34.30;29.30;;;25.91;37.64;95461.00;5010930;28;20011;-50
2023/05/28 10:43:39;;;;;;;;;;;34.20;29.20;;;25.42;37.62;95462.53;5011817;28;19916;-49
2023/05/28 10:46:26;;;;;;;;;;;34.20;29.20;;;25.61;37.05;95467.94;5011792;28;20291;-51
2023/05/28 10:49:14;;;;;;;;;;;34.10;29.20;;;26.39;36.99;95467.59;5010594;28;19960;-52
2023/05/28 10:52:01;;;;;;;;;;;34.10;29.20;;;26.58;36.67;95472.16;5011960;28;19915;-50
2023/05/28 10:54:33;;;;;;;;;;;34.20;29.20;;;26.60;36.62;95464.38;5025269;28;19909;-49
2023/05/28 10:57:14;;;;;;;;;;;34.30;29.10;;;26.07;37.17;95472.56;5011759;28;19909;-54
2023/05/28 10:59:45;;;;;;;;;;;34.30;29.10;;;26.19;36.84;95458.72;5010679;28;20371;-51
2023/05/28 11:02:13;;;;;;;;;;;34.40;29.10;;;26.64;36.91;95467.94;5011492;28;19909;-50
2023/05/28 11:04:39;;;;;;;;;;;34.40;29.10;;;26.96;36.58;95449.22;5010041;28;19908;-50
2023/05/28 11:07:06;;;;;;;;;;;34.60;29.10;;;26.78;36.27;95461.88;5008679;28;20287;-51
2023/05/28 11:09:32;;;;;;;;;;;34.60;28.90;;;26.58;35.81;95457.72;5011540;28;19935;-49
2023/05/28 11:12:02;;;;;;;;;;;34.70;28.60;;;26.96;36.79;95456.63;5006702;28;19909;-49
2023/05/28 11:14:38;;;;;;;;;;;34.70;28.60;;;27.25;35.45;95462.44;5011465;28;20007;-52
2023/05/28 11:17:10;;;;;;;;;;;34.80;28.70;;;27.14;35.01;95451.38;5009540;28;19924;-49